sensor_id;sensor_type;location;lat;lon;timestamp;noise_LAeq;noise_LA_min;noise_LA_max;noise_LA01;noise_LA95
74234;Laerm;62591;55.764;37.718;2022-12-07T00:01:53;40.19;36.71;44.28;;
74234;Laerm;62591;55.764;37.718;2022-12-07T00:04:23;40.95;37.60;48.08;;
74234;Laerm;62591;55.764;37.718;2022-12-07T00:06:52;41.36;38.02;46.16;;
74234;Laerm;62591;55.764;37.718;2022-12-07T00:09:21;42.57;37.19;53.72;;
74234;Laerm;62591;55.764;37.718;2022-12-07T00:11:51;41.35;36.97;53.94;;
74234;Laerm;62591;55.764;37.718;2022-12-07T00:14:20;41.27;37.65;52.90;;
74234;Laerm;62591;55.764;37.718;2022-12-07T00:16:50;41.99;37.00;46.61;;
74234;Laerm;62591;55.764;37.718;2022-12-07T00:19:19;42.47;37.73;47.52;;
74234;Laerm;62591;55.764;37.718;2022-12-07T00:21:49;42.13;37.83;49.95;;
74234;Laerm;62591;55.764;37.718;2022-12-07T00:24:17;41.98;37.18;53.80;;
74234;Laerm;62591;55.764;37.718;2022-12-07T00:26:46;41.04;37.06;47.11;;
74234;Laerm;62591;55.764;37.718;2022-12-07T00:29:17;41.57;37.25;47.71;;
74234;Laerm;62591;55.764;37.718;2022-12-07T00:31:45;40.24;36.51;44.20;;
74234;Laerm;62591;55.764;37.718;2022-12-07T00:34:16;40.68;36.76;46.13;;
74234;Laerm;62591;55.764;37.718;2022-12-07T00:36:46;40.49;36.92;47.56;;
74234;Laerm;62591;55.764;37.718;2022-12-07T00:39:16;40.78;36.49;51.19;;
74234;Laerm;62591;55.764;37.718;2022-12-07T00:41:45;42.54;37.13;50.85;;
74234;Laerm;62591;55.764;37.718;2022-12-07T00:44:13;41.90;36.84;49.30;;
74234;Laerm;62591;55.764;37.718;2022-12-07T00:46:45;41.54;36.57;48.92;;
74234;Laerm;62591;55.764;37.718;2022-12-07T00:49:14;47.14;37.08;60.47;;
74234;Laerm;62591;55.764;37.718;2022-12-07T00:51:42;41.10;37.01;48.44;;
74234;Laerm;62591;55.764;37.718;2022-12-07T00:54:11;40.15;36.23;45.52;;
74234;Laerm;62591;55.764;37.718;2022-12-07T00:56:41;41.35;36.37;52.65;;
74234;Laerm;62591;55.764;37.718;2022-12-07T00:59:12;43.01;37.87;54.42;;
74234;Laerm;62591;55.764;37.718;2022-12-07T01:01:41;40.99;37.45;44.32;;
74234;Laerm;62591;55.764;37.718;2022-12-07T01:04:10;40.43;36.62;52.04;;
74234;Laerm;62591;55.764;37.718;2022-12-07T01:06:38;40.92;37.27;58.29;;
74234;Laerm;62591;55.764;37.718;2022-12-07T01:09:07;41.71;37.65;48.20;;
74234;Laerm;62591;55.764;37.718;2022-12-07T01:11:35;41.84;36.78;50.45;;
74234;Laerm;62591;55.764;37.718;2022-12-07T01:14:05;42.27;36.98;50.16;;
74234;Laerm;62591;55.764;37.718;2022-12-07T01:16:34;42.12;37.38;49.38;;
74234;Laerm;62591;55.764;37.718;2022-12-07T01:19:03;41.01;36.70;47.30;;
74234;Laerm;62591;55.764;37.718;2022-12-07T01:21:33;41.91;37.83;48.37;;
74234;Laerm;62591;55.764;37.718;2022-12-07T01:24:07;42.40;37.13;54.01;;
74234;Laerm;62591;55.764;37.718;2022-12-07T01:26:37;42.06;37.52;50.40;;
74234;Laerm;62591;55.764;37.718;2022-12-07T01:29:07;41.64;37.19;51.33;;
74234;Laerm;62591;55.764;37.718;2022-12-07T01:31:35;41.39;37.30;48.90;;
74234;Laerm;62591;55.764;37.718;2022-12-07T01:34:04;41.85;37.01;48.77;;
74234;Laerm;62591;55.764;37.718;2022-12-07T01:36:35;42.81;37.67;51.86;;
74234;Laerm;62591;55.764;37.718;2022-12-07T01:39:06;41.98;37.91;49.33;;
74234;Laerm;62591;55.764;37.718;2022-12-07T01:41:36;40.20;36.23;43.70;;
74234;Laerm;62591;55.764;37.718;2022-12-07T01:44:12;41.51;36.56;51.83;;
74234;Laerm;62591;55.764;37.718;2022-12-07T01:46:43;43.47;37.16;54.68;;
74234;Laerm;62591;55.764;37.718;2022-12-07T01:49:17;41.09;37.10;51.94;;
74234;Laerm;62591;55.764;37.718;2022-12-07T01:51:47;41.73;37.99;47.08;;
74234;Laerm;62591;55.764;37.718;2022-12-07T01:54:17;41.44;37.14;51.60;;
74234;Laerm;62591;55.764;37.718;2022-12-07T01:56:49;42.13;36.58;55.35;;
74234;Laerm;62591;55.764;37.718;2022-12-07T01:59:23;47.00;37.55;56.85;;
74234;Laerm;62591;55.764;37.718;2022-12-07T02:01:54;42.23;36.26;52.80;;
74234;Laerm;62591;55.764;37.718;2022-12-07T02:04:23;41.72;37.88;48.24;;
74234;Laerm;62591;55.764;37.718;2022-12-07T02:06:53;44.52;37.10;60.93;;
74234;Laerm;62591;55.764;37.718;2022-12-07T02:09:23;45.05;37.87;57.14;;
74234;Laerm;62591;55.764;37.718;2022-12-07T02:11:51;46.96;37.70;57.49;;
74234;Laerm;62591;55.764;37.718;2022-12-07T02:14:22;44.74;38.81;54.49;;
74234;Laerm;62591;55.764;37.718;2022-12-07T02:17:03;43.22;38.31;59.97;;
74234;Laerm;62591;55.764;37.718;2022-12-07T02:20:08;42.48;37.91;50.33;;
74234;Laerm;62591;55.764;37.718;2022-12-07T02:22:51;47.35;38.57;63.16;;
74234;Laerm;62591;55.764;37.718;2022-12-07T02:25:39;44.67;38.55;53.56;;
74234;Laerm;62591;55.764;37.718;2022-12-07T02:28:17;43.37;38.69;49.91;;
74234;Laerm;62591;55.764;37.718;2022-12-07T02:30:50;45.00;38.42;56.41;;
74234;Laerm;62591;55.764;37.718;2022-12-07T02:33:24;42.10;37.36;50.30;;
74234;Laerm;62591;55.764;37.718;2022-12-07T02:35:59;44.43;38.48;55.56;;
74234;Laerm;62591;55.764;37.718;2022-12-07T02:38:31;47.80;38.67;62.45;;
74234;Laerm;62591;55.764;37.718;2022-12-07T02:41:06;44.32;38.18;52.71;;
74234;Laerm;62591;55.764;37.718;2022-12-07T02:43:39;42.27;37.96;48.68;;
74234;Laerm;62591;55.764;37.718;2022-12-07T02:46:14;45.93;38.42;57.15;;
74234;Laerm;62591;55.764;37.718;2022-12-07T02:48:45;46.04;38.76;55.24;;
74234;Laerm;62591;55.764;37.718;2022-12-07T02:51:14;44.62;40.08;51.82;;
74234;Laerm;62591;55.764;37.718;2022-12-07T02:53:45;46.43;38.95;54.69;;
74234;Laerm;62591;55.764;37.718;2022-12-07T02:56:18;43.94;38.09;49.97;;
74234;Laerm;62591;55.764;37.718;2022-12-07T02:59:03;42.58;38.36;48.20;;
74234;Laerm;62591;55.764;37.718;2022-12-07T03:01:43;47.75;40.34;56.74;;
74234;Laerm;62591;55.764;37.718;2022-12-07T03:04:22;46.08;39.66;54.82;;
74234;Laerm;62591;55.764;37.718;2022-12-07T03:07:03;46.68;39.17;56.30;;
74234;Laerm;62591;55.764;37.718;2022-12-07T03:09:38;49.20;40.08;62.11;;
74234;Laerm;62591;55.764;37.718;2022-12-07T03:12:14;45.40;39.39;52.21;;
74234;Laerm;62591;55.764;37.718;2022-12-07T03:14:49;45.38;39.47;54.02;;
74234;Laerm;62591;55.764;37.718;2022-12-07T03:17:22;44.82;39.70;52.29;;
74234;Laerm;62591;55.764;37.718;2022-12-07T03:20:00;47.77;40.47;57.44;;
74234;Laerm;62591;55.764;37.718;2022-12-07T03:22:40;47.51;40.54;55.25;;
74234;Laerm;62591;55.764;37.718;2022-12-07T03:25:11;45.11;40.00;53.08;;
74234;Laerm;62591;55.764;37.718;2022-12-07T03:27:46;48.04;41.31;54.71;;
74234;Laerm;62591;55.764;37.718;2022-12-07T03:30:20;47.51;40.59;55.97;;
74234;Laerm;62591;55.764;37.718;2022-12-07T03:32:56;47.14;41.77;54.94;;
74234;Laerm;62591;55.764;37.718;2022-12-07T03:35:28;46.94;40.88;54.09;;
74234;Laerm;62591;55.764;37.718;2022-12-07T03:38:02;48.41;40.64;62.91;;
74234;Laerm;62591;55.764;37.718;2022-12-07T03:40:35;48.99;40.84;58.60;;
74234;Laerm;62591;55.764;37.718;2022-12-07T03:43:06;48.01;39.91;58.82;;
74234;Laerm;62591;55.764;37.718;2022-12-07T03:45:39;47.70;40.14;59.94;;
74234;Laerm;62591;55.764;37.718;2022-12-07T03:48:17;48.00;41.71;57.09;;
74234;Laerm;62591;55.764;37.718;2022-12-07T03:50:51;48.53;42.56;54.38;;
74234;Laerm;62591;55.764;37.718;2022-12-07T03:53:26;48.05;40.81;56.29;;
74234;Laerm;62591;55.764;37.718;2022-12-07T03:55:59;48.13;41.65;54.46;;
74234;Laerm;62591;55.764;37.718;2022-12-07T03:58:30;47.55;41.83;53.86;;
74234;Laerm;62591;55.764;37.718;2022-12-07T04:00:59;50.12;41.11;65.27;;
74234;Laerm;62591;55.764;37.718;2022-12-07T04:03:29;47.61;40.05;54.28;;
74234;Laerm;62591;55.764;37.718;2022-12-07T04:05:57;48.50;42.41;65.63;;
74234;Laerm;62591;55.764;37.718;2022-12-07T04:08:27;50.97;44.57;59.03;;
74234;Laerm;62591;55.764;37.718;2022-12-07T04:10:55;49.00;45.42;54.43;;
74234;Laerm;62591;55.764;37.718;2022-12-07T04:13:24;48.57;43.28;58.59;;
74234;Laerm;62591;55.764;37.718;2022-12-07T04:15:52;49.78;45.15;56.72;;
74234;Laerm;62591;55.764;37.718;2022-12-07T04:18:21;49.57;44.23;60.39;;
74234;Laerm;62591;55.764;37.718;2022-12-07T04:20:51;48.75;42.80;54.88;;
74234;Laerm;62591;55.764;37.718;2022-12-07T04:23:20;50.10;43.66;63.51;;
74234;Laerm;62591;55.764;37.718;2022-12-07T04:25:49;50.79;45.63;60.78;;
74234;Laerm;62591;55.764;37.718;2022-12-07T04:28:18;50.38;43.05;59.06;;
74234;Laerm;62591;55.764;37.718;2022-12-07T04:30:46;50.14;43.99;60.87;;
74234;Laerm;62591;55.764;37.718;2022-12-07T04:33:15;50.30;45.23;57.89;;
74234;Laerm;62591;55.764;37.718;2022-12-07T04:35:43;50.47;44.86;58.46;;
74234;Laerm;62591;55.764;37.718;2022-12-07T04:38:13;50.64;44.39;61.37;;
74234;Laerm;62591;55.764;37.718;2022-12-07T04:40:42;51.36;45.85;61.64;;
74234;Laerm;62591;55.764;37.718;2022-12-07T04:43:10;51.04;43.82;64.60;;
74234;Laerm;62591;55.764;37.718;2022-12-07T04:45:39;51.22;45.15;58.99;;
74234;Laerm;62591;55.764;37.718;2022-12-07T04:48:07;51.68;45.25;65.70;;
74234;Laerm;62591;55.764;37.718;2022-12-07T04:50:37;53.27;45.98;65.66;;
74234;Laerm;62591;55.764;37.718;2022-12-07T04:53:13;51.96;44.80;66.89;;
74234;Laerm;62591;55.764;37.718;2022-12-07T04:55:41;50.69;45.82;62.13;;
74234;Laerm;62591;55.764;37.718;2022-12-07T04:58:10;50.49;45.00;58.03;;
74234;Laerm;62591;55.764;37.718;2022-12-07T05:00:39;51.53;44.86;60.14;;
74234;Laerm;62591;55.764;37.718;2022-12-07T05:03:07;50.33;46.33;58.72;;
74234;Laerm;62591;55.764;37.718;2022-12-07T05:05:39;49.88;45.51;56.59;;
74234;Laerm;62591;55.764;37.718;2022-12-07T05:08:07;52.72;46.76;61.34;;
74234;Laerm;62591;55.764;37.718;2022-12-07T05:10:37;51.13;46.30;56.69;;
74234;Laerm;62591;55.764;37.718;2022-12-07T05:13:06;52.76;46.43;62.24;;
74234;Laerm;62591;55.764;37.718;2022-12-07T05:15:34;51.73;46.23;63.68;;
74234;Laerm;62591;55.764;37.718;2022-12-07T05:18:03;51.71;45.39;64.27;;
74234;Laerm;62591;55.764;37.718;2022-12-07T05:20:32;51.40;45.87;63.70;;
74234;Laerm;62591;55.764;37.718;2022-12-07T05:23:08;52.29;46.61;59.90;;
74234;Laerm;62591;55.764;37.718;2022-12-07T05:25:39;51.42;47.17;63.23;;
74234;Laerm;62591;55.764;37.718;2022-12-07T05:28:07;51.12;47.04;62.47;;
74234;Laerm;62591;55.764;37.718;2022-12-07T05:30:36;52.68;46.36;65.95;;
74234;Laerm;62591;55.764;37.718;2022-12-07T05:33:05;51.31;46.51;64.63;;
74234;Laerm;62591;55.764;37.718;2022-12-07T05:35:33;51.10;45.82;61.48;;
74234;Laerm;62591;55.764;37.718;2022-12-07T05:38:02;53.41;46.40;61.74;;
74234;Laerm;62591;55.764;37.718;2022-12-07T05:40:33;51.27;45.24;60.68;;
74234;Laerm;62591;55.764;37.718;2022-12-07T05:43:03;51.61;44.65;59.57;;
74234;Laerm;62591;55.764;37.718;2022-12-07T05:45:32;51.20;46.84;61.19;;
74234;Laerm;62591;55.764;37.718;2022-12-07T05:48:00;51.50;46.61;61.61;;
74234;Laerm;62591;55.764;37.718;2022-12-07T05:50:29;52.18;47.13;64.96;;
74234;Laerm;62591;55.764;37.718;2022-12-07T05:53:00;51.34;46.35;67.36;;
74234;Laerm;62591;55.764;37.718;2022-12-07T05:55:29;51.85;47.20;66.58;;
74234;Laerm;62591;55.764;37.718;2022-12-07T05:57:57;52.92;47.54;58.19;;
74234;Laerm;62591;55.764;37.718;2022-12-07T06:00:44;51.22;45.76;62.85;;
74234;Laerm;62591;55.764;37.718;2022-12-07T06:03:17;52.85;46.35;60.96;;
74234;Laerm;62591;55.764;37.718;2022-12-07T06:05:46;52.74;47.55;58.36;;
74234;Laerm;62591;55.764;37.718;2022-12-07T06:08:29;54.15;45.97;65.03;;
74234;Laerm;62591;55.764;37.718;2022-12-07T06:10:58;51.63;46.02;61.58;;
74234;Laerm;62591;55.764;37.718;2022-12-07T06:13:42;52.41;45.97;62.10;;
74234;Laerm;62591;55.764;37.718;2022-12-07T06:16:15;52.28;47.91;64.80;;
74234;Laerm;62591;55.764;37.718;2022-12-07T06:18:44;51.12;46.47;56.07;;
74234;Laerm;62591;55.764;37.718;2022-12-07T06:21:13;50.80;46.47;58.15;;
74234;Laerm;62591;55.764;37.718;2022-12-07T06:23:42;52.84;46.08;61.64;;
74234;Laerm;62591;55.764;37.718;2022-12-07T06:26:10;51.45;44.76;60.35;;
74234;Laerm;62591;55.764;37.718;2022-12-07T06:28:40;52.71;44.81;64.43;;
74234;Laerm;62591;55.764;37.718;2022-12-07T06:31:09;50.82;43.76;59.98;;
74234;Laerm;62591;55.764;37.718;2022-12-07T06:33:41;50.59;45.36;55.34;;
74234;Laerm;62591;55.764;37.718;2022-12-07T06:36:10;50.91;45.58;57.95;;
74234;Laerm;62591;55.764;37.718;2022-12-07T06:38:38;51.62;46.11;59.11;;
74234;Laerm;62591;55.764;37.718;2022-12-07T06:41:07;50.51;44.73;59.81;;
74234;Laerm;62591;55.764;37.718;2022-12-07T06:43:36;51.87;45.61;60.92;;
74234;Laerm;62591;55.764;37.718;2022-12-07T06:46:06;51.24;43.52;61.86;;
74234;Laerm;62591;55.764;37.718;2022-12-07T06:48:35;51.36;45.40;60.66;;
74234;Laerm;62591;55.764;37.718;2022-12-07T06:51:06;51.06;45.89;58.04;;
74234;Laerm;62591;55.764;37.718;2022-12-07T06:53:36;51.86;47.26;61.43;;
74234;Laerm;62591;55.764;37.718;2022-12-07T06:56:05;50.66;46.42;57.94;;
74234;Laerm;62591;55.764;37.718;2022-12-07T06:58:34;50.89;46.33;56.70;;
74234;Laerm;62591;55.764;37.718;2022-12-07T07:01:07;51.97;47.10;63.21;;
74234;Laerm;62591;55.764;37.718;2022-12-07T07:03:36;51.41;45.37;63.87;;
74234;Laerm;62591;55.764;37.718;2022-12-07T07:06:07;52.00;46.46;62.46;;
74234;Laerm;62591;55.764;37.718;2022-12-07T07:08:36;52.41;44.21;60.85;;
74234;Laerm;62591;55.764;37.718;2022-12-07T07:11:07;51.35;44.80;68.86;;
74234;Laerm;62591;55.764;37.718;2022-12-07T07:13:36;51.41;46.41;62.02;;
74234;Laerm;62591;55.764;37.718;2022-12-07T07:16:06;50.97;45.91;60.02;;
74234;Laerm;62591;55.764;37.718;2022-12-07T07:18:35;51.78;46.09;65.45;;
74234;Laerm;62591;55.764;37.718;2022-12-07T07:21:04;50.50;45.37;59.00;;
74234;Laerm;62591;55.764;37.718;2022-12-07T07:23:34;49.90;44.79;57.13;;
74234;Laerm;62591;55.764;37.718;2022-12-07T07:26:02;51.17;45.21;66.65;;
74234;Laerm;62591;55.764;37.718;2022-12-07T07:28:31;51.49;47.24;59.85;;
74234;Laerm;62591;55.764;37.718;2022-12-07T07:30:59;50.01;44.72;55.83;;
74234;Laerm;62591;55.764;37.718;2022-12-07T07:33:28;50.74;45.64;58.11;;
74234;Laerm;62591;55.764;37.718;2022-12-07T07:35:57;51.50;44.24;61.53;;
74234;Laerm;62591;55.764;37.718;2022-12-07T07:38:25;50.73;44.61;58.66;;
74234;Laerm;62591;55.764;37.718;2022-12-07T07:40:55;50.70;46.73;55.72;;
74234;Laerm;62591;55.764;37.718;2022-12-07T07:43:24;50.12;44.94;63.47;;
74234;Laerm;62591;55.764;37.718;2022-12-07T07:45:52;49.51;44.01;59.51;;
74234;Laerm;62591;55.764;37.718;2022-12-07T07:48:21;51.78;46.69;61.35;;
74234;Laerm;62591;55.764;37.718;2022-12-07T07:50:52;51.55;44.33;68.41;;
74234;Laerm;62591;55.764;37.718;2022-12-07T07:53:21;50.93;46.38;62.72;;
74234;Laerm;62591;55.764;37.718;2022-12-07T07:55:52;51.47;46.18;58.03;;
74234;Laerm;62591;55.764;37.718;2022-12-07T07:58:22;49.94;44.75;56.31;;
74234;Laerm;62591;55.764;37.718;2022-12-07T08:00:51;50.12;45.84;55.38;;
74234;Laerm;62591;55.764;37.718;2022-12-07T08:03:20;49.65;44.43;59.62;;
74234;Laerm;62591;55.764;37.718;2022-12-07T08:05:48;52.04;44.54;72.63;;
74234;Laerm;62591;55.764;37.718;2022-12-07T08:08:17;51.34;44.15;59.91;;
74234;Laerm;62591;55.764;37.718;2022-12-07T08:10:46;50.94;44.63;63.19;;
74234;Laerm;62591;55.764;37.718;2022-12-07T08:13:15;52.89;45.26;69.19;;
74234;Laerm;62591;55.764;37.718;2022-12-07T08:15:47;52.70;47.43;68.19;;
74234;Laerm;62591;55.764;37.718;2022-12-07T08:18:16;51.15;45.74;60.96;;
74234;Laerm;62591;55.764;37.718;2022-12-07T08:20:44;50.95;44.36;62.39;;
74234;Laerm;62591;55.764;37.718;2022-12-07T08:23:13;52.14;45.31;66.91;;
74234;Laerm;62591;55.764;37.718;2022-12-07T08:25:41;52.43;44.82;75.18;;
74234;Laerm;62591;55.764;37.718;2022-12-07T08:28:10;50.36;44.37;63.43;;
74234;Laerm;62591;55.764;37.718;2022-12-07T08:30:38;49.83;45.52;60.24;;
74234;Laerm;62591;55.764;37.718;2022-12-07T08:33:08;50.61;44.80;66.02;;
74234;Laerm;62591;55.764;37.718;2022-12-07T08:35:37;48.71;44.23;58.36;;
74234;Laerm;62591;55.764;37.718;2022-12-07T08:38:06;49.88;42.89;69.06;;
74234;Laerm;62591;55.764;37.718;2022-12-07T08:40:35;51.19;46.40;60.03;;
74234;Laerm;62591;55.764;37.718;2022-12-07T08:43:03;51.24;44.37;70.07;;
74234;Laerm;62591;55.764;37.718;2022-12-07T08:45:32;49.98;43.84;58.42;;
74234;Laerm;62591;55.764;37.718;2022-12-07T08:48:05;51.83;45.53;66.68;;
74234;Laerm;62591;55.764;37.718;2022-12-07T08:50:37;50.28;44.31;61.81;;
74234;Laerm;62591;55.764;37.718;2022-12-07T08:53:13;49.24;43.71;63.71;;
74234;Laerm;62591;55.764;37.718;2022-12-07T08:55:43;47.77;43.85;54.62;;
74234;Laerm;62591;55.764;37.718;2022-12-07T08:58:12;49.53;43.94;56.43;;
74234;Laerm;62591;55.764;37.718;2022-12-07T09:00:41;50.26;45.11;56.65;;
74234;Laerm;62591;55.764;37.718;2022-12-07T09:03:10;50.28;45.05;62.92;;
74234;Laerm;62591;55.764;37.718;2022-12-07T09:05:40;50.41;44.39;59.51;;
74234;Laerm;62591;55.764;37.718;2022-12-07T09:08:09;50.62;45.03;59.29;;
74234;Laerm;62591;55.764;37.718;2022-12-07T09:10:37;50.04;44.32;59.73;;
74234;Laerm;62591;55.764;37.718;2022-12-07T09:13:05;50.19;44.71;58.63;;
74234;Laerm;62591;55.764;37.718;2022-12-07T09:15:34;49.10;43.58;63.27;;
74234;Laerm;62591;55.764;37.718;2022-12-07T09:18:03;49.97;44.82;58.53;;
74234;Laerm;62591;55.764;37.718;2022-12-07T09:20:31;48.52;44.02;56.25;;
74234;Laerm;62591;55.764;37.718;2022-12-07T09:23:02;51.50;46.20;71.13;;
74234;Laerm;62591;55.764;37.718;2022-12-07T09:25:30;50.50;43.93;59.11;;
74234;Laerm;62591;55.764;37.718;2022-12-07T09:27:59;49.35;43.93;58.80;;
74234;Laerm;62591;55.764;37.718;2022-12-07T09:30:28;48.68;43.26;58.64;;
74234;Laerm;62591;55.764;37.718;2022-12-07T09:32:57;49.04;43.73;59.03;;
74234;Laerm;62591;55.764;37.718;2022-12-07T09:35:30;48.94;44.49;57.17;;
74234;Laerm;62591;55.764;37.718;2022-12-07T09:37:59;51.04;43.94;61.76;;
74234;Laerm;62591;55.764;37.718;2022-12-07T09:40:29;49.91;44.45;58.42;;
74234;Laerm;62591;55.764;37.718;2022-12-07T09:42:57;50.21;44.87;63.63;;
74234;Laerm;62591;55.764;37.718;2022-12-07T09:45:31;51.54;45.36;71.22;;
74234;Laerm;62591;55.764;37.718;2022-12-07T09:48:02;49.73;44.86;58.56;;
74234;Laerm;62591;55.764;37.718;2022-12-07T09:50:30;49.68;45.00;56.24;;
74234;Laerm;62591;55.764;37.718;2022-12-07T09:53:06;48.13;43.62;59.44;;
74234;Laerm;62591;55.764;37.718;2022-12-07T09:55:38;49.45;43.41;58.00;;
74234;Laerm;62591;55.764;37.718;2022-12-07T09:58:12;49.85;43.86;56.72;;
74234;Laerm;62591;55.764;37.718;2022-12-07T10:00:46;48.79;43.84;58.60;;
74234;Laerm;62591;55.764;37.718;2022-12-07T10:03:14;49.16;42.29;66.00;;
74234;Laerm;62591;55.764;37.718;2022-12-07T10:05:46;49.15;42.95;55.84;;
74234;Laerm;62591;55.764;37.718;2022-12-07T10:08:16;51.11;44.27;60.03;;
74234;Laerm;62591;55.764;37.718;2022-12-07T10:10:50;49.02;43.64;56.52;;
74234;Laerm;62591;55.764;37.718;2022-12-07T10:13:20;49.20;43.72;61.57;;
74234;Laerm;62591;55.764;37.718;2022-12-07T10:15:52;50.07;44.28;58.58;;
74234;Laerm;62591;55.764;37.718;2022-12-07T10:18:29;50.30;44.20;61.86;;
74234;Laerm;62591;55.764;37.718;2022-12-07T10:21:10;50.75;44.44;64.39;;
74234;Laerm;62591;55.764;37.718;2022-12-07T10:23:41;48.73;43.83;57.05;;
74234;Laerm;62591;55.764;37.718;2022-12-07T10:26:32;48.74;42.99;57.45;;
74234;Laerm;62591;55.764;37.718;2022-12-07T10:29:12;50.62;43.32;63.18;;
74234;Laerm;62591;55.764;37.718;2022-12-07T10:31:43;49.22;44.73;55.52;;
74234;Laerm;62591;55.764;37.718;2022-12-07T10:34:21;49.88;44.27;57.86;;
74234;Laerm;62591;55.764;37.718;2022-12-07T10:36:52;49.63;43.35;66.80;;
74234;Laerm;62591;55.764;37.718;2022-12-07T10:39:22;52.20;44.71;61.96;;
74234;Laerm;62591;55.764;37.718;2022-12-07T10:41:57;49.83;43.71;64.20;;
74234;Laerm;62591;55.764;37.718;2022-12-07T10:44:27;54.16;44.53;71.88;;
74234;Laerm;62591;55.764;37.718;2022-12-07T10:47:18;51.15;44.48;62.19;;
74234;Laerm;62591;55.764;37.718;2022-12-07T10:53:18;48.69;43.49;61.40;;
74234;Laerm;62591;55.764;37.718;2022-12-07T10:56:11;50.61;43.83;61.11;;
74234;Laerm;62591;55.764;37.718;2022-12-07T10:58:57;53.06;45.89;65.20;;
74234;Laerm;62591;55.764;37.718;2022-12-07T11:01:32;49.92;44.35;59.94;;
74234;Laerm;62591;55.764;37.718;2022-12-07T11:04:14;50.44;44.55;64.60;;
74234;Laerm;62591;55.764;37.718;2022-12-07T11:06:51;51.08;45.76;67.01;;
74234;Laerm;62591;55.764;37.718;2022-12-07T11:09:47;49.30;42.69;59.53;;
74234;Laerm;62591;55.764;37.718;2022-12-07T11:12:46;50.72;44.25;72.74;;
74234;Laerm;62591;55.764;37.718;2022-12-07T11:15:22;49.42;44.27;58.43;;
74234;Laerm;62591;55.764;37.718;2022-12-07T11:17:58;51.45;43.40;59.28;;
74234;Laerm;62591;55.764;37.718;2022-12-07T11:20:37;49.87;44.48;58.87;;
74234;Laerm;62591;55.764;37.718;2022-12-07T11:23:16;51.08;45.12;63.75;;
74234;Laerm;62591;55.764;37.718;2022-12-07T11:25:52;51.93;44.63;62.95;;
74234;Laerm;62591;55.764;37.718;2022-12-07T11:28:39;50.22;43.51;55.85;;
74234;Laerm;62591;55.764;37.718;2022-12-07T11:31:15;50.43;43.81;62.07;;
74234;Laerm;62591;55.764;37.718;2022-12-07T11:33:59;49.54;44.66;57.10;;
74234;Laerm;62591;55.764;37.718;2022-12-07T11:36:36;51.07;45.30;64.47;;
74234;Laerm;62591;55.764;37.718;2022-12-07T11:39:23;51.33;45.02;58.19;;
74234;Laerm;62591;55.764;37.718;2022-12-07T11:41:59;51.02;45.03;60.78;;
74234;Laerm;62591;55.764;37.718;2022-12-07T11:44:33;50.34;45.79;59.19;;
74234;Laerm;62591;55.764;37.718;2022-12-07T11:47:09;51.16;44.77;63.65;;
74234;Laerm;62591;55.764;37.718;2022-12-07T11:49:43;50.56;44.72;63.81;;
74234;Laerm;62591;55.764;37.718;2022-12-07T11:52:18;52.42;45.31;68.85;;
74234;Laerm;62591;55.764;37.718;2022-12-07T11:54:50;51.91;45.52;65.42;;
74234;Laerm;62591;55.764;37.718;2022-12-07T11:57:25;50.54;44.75;66.11;;
74234;Laerm;62591;55.764;37.718;2022-12-07T12:00:00;50.51;45.03;56.60;;
74234;Laerm;62591;55.764;37.718;2022-12-07T12:02:37;50.94;44.43;58.00;;
74234;Laerm;62591;55.764;37.718;2022-12-07T12:05:15;49.71;43.88;65.50;;
74234;Laerm;62591;55.764;37.718;2022-12-07T12:07:47;50.62;44.57;64.45;;
74234;Laerm;62591;55.764;37.718;2022-12-07T12:10:47;49.79;43.91;65.94;;
74234;Laerm;62591;55.764;37.718;2022-12-07T12:13:56;49.80;44.64;65.09;;
74234;Laerm;62591;55.764;37.718;2022-12-07T12:17:06;52.09;43.90;69.40;;
74234;Laerm;62591;55.764;37.718;2022-12-07T12:19:41;50.08;44.42;63.78;;
74234;Laerm;62591;55.764;37.718;2022-12-07T12:22:14;49.39;44.07;56.35;;
74234;Laerm;62591;55.764;37.718;2022-12-07T12:24:45;49.08;43.85;56.33;;
74234;Laerm;62591;55.764;37.718;2022-12-07T12:27:21;49.85;45.24;58.68;;
74234;Laerm;62591;55.764;37.718;2022-12-07T12:29:54;50.64;44.24;56.78;;
74234;Laerm;62591;55.764;37.718;2022-12-07T12:32:32;49.46;44.18;68.67;;
74234;Laerm;62591;55.764;37.718;2022-12-07T12:35:39;51.11;45.72;58.35;;
74234;Laerm;62591;55.764;37.718;2022-12-07T12:38:29;51.16;44.52;60.34;;
74234;Laerm;62591;55.764;37.718;2022-12-07T12:40:58;50.75;44.58;64.52;;
74234;Laerm;62591;55.764;37.718;2022-12-07T12:43:47;51.90;46.16;60.86;;
74234;Laerm;62591;55.764;37.718;2022-12-07T12:46:50;50.88;44.52;61.80;;
74234;Laerm;62591;55.764;37.718;2022-12-07T12:49:33;51.22;45.53;63.96;;
74234;Laerm;62591;55.764;37.718;2022-12-07T12:52:48;51.48;45.01;65.35;;
74234;Laerm;62591;55.764;37.718;2022-12-07T12:58:31;50.73;46.01;65.71;;
74234;Laerm;62591;55.764;37.718;2022-12-07T13:04:28;50.94;46.17;65.51;;
74234;Laerm;62591;55.764;37.718;2022-12-07T13:06:59;51.91;46.27;61.53;;
74234;Laerm;62591;55.764;37.718;2022-12-07T13:09:31;52.31;45.31;66.86;;
74234;Laerm;62591;55.764;37.718;2022-12-07T13:12:05;50.80;45.77;59.70;;
74234;Laerm;62591;55.764;37.718;2022-12-07T13:14:55;52.50;45.28;71.30;;
74234;Laerm;62591;55.764;37.718;2022-12-07T13:18:02;50.54;44.19;66.72;;
74234;Laerm;62591;55.764;37.718;2022-12-07T13:20:44;51.10;45.70;61.25;;
74234;Laerm;62591;55.764;37.718;2022-12-07T13:23:17;50.38;44.20;67.49;;
74234;Laerm;62591;55.764;37.718;2022-12-07T13:26:14;50.89;45.38;59.28;;
74234;Laerm;62591;55.764;37.718;2022-12-07T13:28:45;50.50;44.55;55.96;;
74234;Laerm;62591;55.764;37.718;2022-12-07T13:31:33;52.49;45.13;67.89;;
74234;Laerm;62591;55.764;37.718;2022-12-07T13:34:03;51.12;44.78;62.95;;
74234;Laerm;62591;55.764;37.718;2022-12-07T13:36:36;51.19;46.26;63.99;;
74234;Laerm;62591;55.764;37.718;2022-12-07T13:39:17;51.73;43.60;59.09;;
74234;Laerm;62591;55.764;37.718;2022-12-07T13:41:51;51.13;45.77;64.38;;
74234;Laerm;62591;55.764;37.718;2022-12-07T13:44:21;50.50;45.19;62.80;;
74234;Laerm;62591;55.764;37.718;2022-12-07T13:46:55;50.54;45.35;74.01;;
74234;Laerm;62591;55.764;37.718;2022-12-07T13:49:27;50.55;45.86;61.59;;
74234;Laerm;62591;55.764;37.718;2022-12-07T13:52:12;49.60;44.80;58.84;;
74234;Laerm;62591;55.764;37.718;2022-12-07T13:54:45;48.71;44.39;60.12;;
74234;Laerm;62591;55.764;37.718;2022-12-07T13:57:15;51.92;44.24;76.44;;
74234;Laerm;62591;55.764;37.718;2022-12-07T13:59:43;52.11;44.61;69.58;;
74234;Laerm;62591;55.764;37.718;2022-12-07T14:02:20;50.74;44.82;64.16;;
74234;Laerm;62591;55.764;37.718;2022-12-07T14:04:50;49.42;44.08;69.37;;
74234;Laerm;62591;55.764;37.718;2022-12-07T14:07:23;52.93;46.90;65.37;;
74234;Laerm;62591;55.764;37.718;2022-12-07T14:09:57;52.24;46.05;62.06;;
74234;Laerm;62591;55.764;37.718;2022-12-07T14:12:28;52.30;44.45;69.31;;
74234;Laerm;62591;55.764;37.718;2022-12-07T14:14:58;50.53;44.23;63.53;;